sensor_id;sensor_type;location;lat;lon;timestamp;P1;durP1;ratioP1;P2;durP2;ratioP2
56255;SDS011;57229;51.432;-2.598;2023-12-04T00:00:45;7.07;;;6.55;;
56255;SDS011;57229;51.432;-2.598;2023-12-04T00:03:11;6.78;;;6.28;;
56255;SDS011;57229;51.432;-2.598;2023-12-04T00:05:36;6.57;;;6.07;;
56255;SDS011;57229;51.432;-2.598;2023-12-04T00:08:02;6.68;;;6.15;;
56255;SDS011;57229;51.432;-2.598;2023-12-04T00:10:27;7.22;;;6.47;;
56255;SDS011;57229;51.432;-2.598;2023-12-04T00:12:53;7.65;;;7.03;;
56255;SDS011;57229;51.432;-2.598;2023-12-04T00:15:19;7.65;;;7.05;;
56255;SDS011;57229;51.432;-2.598;2023-12-04T00:17:46;9.93;;;6.75;;
56255;SDS011;57229;51.432;-2.598;2023-12-04T00:20:12;6.97;;;6.32;;
56255;SDS011;57229;51.432;-2.598;2023-12-04T00:22:37;7.60;;;7.00;;
56255;SDS011;57229;51.432;-2.598;2023-12-04T00:25:03;7.43;;;6.78;;
56255;SDS011;57229;51.432;-2.598;2023-12-04T00:27:31;7.32;;;6.63;;
56255;SDS011;57229;51.432;-2.598;2023-12-04T00:29:57;7.30;;;6.80;;
56255;SDS011;57229;51.432;-2.598;2023-12-04T00:32:23;7.07;;;6.57;;
56255;SDS011;57229;51.432;-2.598;2023-12-04T00:34:49;6.93;;;6.18;;
56255;SDS011;57229;51.432;-2.598;2023-12-04T00:37:14;6.60;;;6.10;;
56255;SDS011;57229;51.432;-2.598;2023-12-04T00:39:40;7.72;;;6.57;;
56255;SDS011;57229;51.432;-2.598;2023-12-04T00:42:06;6.93;;;6.43;;
56255;SDS011;57229;51.432;-2.598;2023-12-04T00:44:31;6.72;;;6.13;;
56255;SDS011;57229;51.432;-2.598;2023-12-04T00:46:57;7.20;;;6.53;;
56255;SDS011;57229;51.432;-2.598;2023-12-04T00:49:23;6.70;;;6.20;;
56255;SDS011;57229;51.432;-2.598;2023-12-04T00:51:48;6.95;;;6.30;;
56255;SDS011;57229;51.432;-2.598;2023-12-04T00:54:14;6.60;;;6.00;;
56255;SDS011;57229;51.432;-2.598;2023-12-04T00:56:40;6.70;;;6.10;;
56255;SDS011;57229;51.432;-2.598;2023-12-04T00:59:09;6.50;;;6.00;;
56255;SDS011;57229;51.432;-2.598;2023-12-04T01:01:36;6.32;;;5.90;;
56255;SDS011;57229;51.432;-2.598;2023-12-04T01:04:02;6.45;;;5.95;;
56255;SDS011;57229;51.432;-2.598;2023-12-04T01:06:28;6.75;;;5.95;;
56255;SDS011;57229;51.432;-2.598;2023-12-04T01:08:54;6.55;;;6.05;;
56255;SDS011;57229;51.432;-2.598;2023-12-04T01:11:20;7.78;;;6.10;;
56255;SDS011;57229;51.432;-2.598;2023-12-04T01:13:47;6.15;;;5.70;;
56255;SDS011;57229;51.432;-2.598;2023-12-04T01:16:14;6.75;;;6.15;;
56255;SDS011;57229;51.432;-2.598;2023-12-04T01:18:40;6.97;;;6.07;;
56255;SDS011;57229;51.432;-2.598;2023-12-04T01:21:09;7.10;;;6.40;;
56255;SDS011;57229;51.432;-2.598;2023-12-04T01:23:35;6.38;;;5.97;;
56255;SDS011;57229;51.432;-2.598;2023-12-04T01:26:01;6.70;;;6.10;;
56255;SDS011;57229;51.432;-2.598;2023-12-04T01:28:27;7.13;;;6.50;;
56255;SDS011;57229;51.432;-2.598;2023-12-04T01:30:53;6.95;;;6.25;;
56255;SDS011;57229;51.432;-2.598;2023-12-04T01:33:19;6.50;;;6.10;;
56255;SDS011;57229;51.432;-2.598;2023-12-04T01:35:44;6.72;;;6.22;;
56255;SDS011;57229;51.432;-2.598;2023-12-04T01:38:10;6.88;;;6.22;;
56255;SDS011;57229;51.432;-2.598;2023-12-04T01:40:35;6.95;;;6.35;;
56255;SDS011;57229;51.432;-2.598;2023-12-04T01:43:02;6.57;;;6.00;;
56255;SDS011;57229;51.432;-2.598;2023-12-04T01:45:28;7.00;;;6.40;;
56255;SDS011;57229;51.432;-2.598;2023-12-04T01:47:53;7.10;;;6.43;;
56255;SDS011;57229;51.432;-2.598;2023-12-04T01:50:19;7.25;;;6.53;;
56255;SDS011;57229;51.432;-2.598;2023-12-04T01:52:45;6.43;;;5.93;;
56255;SDS011;57229;51.432;-2.598;2023-12-04T01:55:12;6.63;;;6.03;;
56255;SDS011;57229;51.432;-2.598;2023-12-04T01:57:39;6.10;;;5.60;;
56255;SDS011;57229;51.432;-2.598;2023-12-04T02:00:06;6.93;;;6.32;;
56255;SDS011;57229;51.432;-2.598;2023-12-04T02:02:37;6.38;;;5.90;;
56255;SDS011;57229;51.432;-2.598;2023-12-04T02:05:08;6.60;;;5.97;;
56255;SDS011;57229;51.432;-2.598;2023-12-04T02:07:34;6.68;;;6.07;;
56255;SDS011;57229;51.432;-2.598;2023-12-04T02:10:02;6.75;;;5.78;;
56255;SDS011;57229;51.432;-2.598;2023-12-04T02:12:28;6.50;;;6.10;;
56255;SDS011;57229;51.432;-2.598;2023-12-04T02:14:54;6.88;;;6.28;;
56255;SDS011;57229;51.432;-2.598;2023-12-04T02:17:20;6.38;;;5.97;;
56255;SDS011;57229;51.432;-2.598;2023-12-04T02:19:47;6.68;;;6.28;;
56255;SDS011;57229;51.432;-2.598;2023-12-04T02:22:12;6.55;;;6.15;;
56255;SDS011;57229;51.432;-2.598;2023-12-04T02:24:38;6.45;;;6.05;;
56255;SDS011;57229;51.432;-2.598;2023-12-04T02:27:05;6.85;;;6.40;;
56255;SDS011;57229;51.432;-2.598;2023-12-04T02:29:56;6.70;;;6.20;;
56255;SDS011;57229;51.432;-2.598;2023-12-04T02:32:24;6.65;;;6.10;;
56255;SDS011;57229;51.432;-2.598;2023-12-04T02:34:56;7.75;;;6.22;;
56255;SDS011;57229;51.432;-2.598;2023-12-04T02:37:24;7.00;;;6.40;;
56255;SDS011;57229;51.432;-2.598;2023-12-04T02:39:51;6.60;;;6.00;;
56255;SDS011;57229;51.432;-2.598;2023-12-04T02:42:20;6.75;;;6.25;;
56255;SDS011;57229;51.432;-2.598;2023-12-04T02:44:47;6.28;;;5.88;;
56255;SDS011;57229;51.432;-2.598;2023-12-04T02:47:13;6.32;;;5.80;;
56255;SDS011;57229;51.432;-2.598;2023-12-04T02:49:39;6.75;;;6.13;;
56255;SDS011;57229;51.432;-2.598;2023-12-04T02:52:05;6.78;;;6.28;;
56255;SDS011;57229;51.432;-2.598;2023-12-04T02:54:31;6.65;;;6.25;;
56255;SDS011;57229;51.432;-2.598;2023-12-04T02:56:56;10.20;;;6.45;;
56255;SDS011;57229;51.432;-2.598;2023-12-04T02:59:22;9.18;;;6.13;;
56255;SDS011;57229;51.432;-2.598;2023-12-04T03:01:47;7.07;;;6.40;;
56255;SDS011;57229;51.432;-2.598;2023-12-04T03:04:13;8.00;;;6.57;;
56255;SDS011;57229;51.432;-2.598;2023-12-04T03:06:38;6.57;;;6.13;;
56255;SDS011;57229;51.432;-2.598;2023-12-04T03:09:04;6.90;;;6.43;;
56255;SDS011;57229;51.432;-2.598;2023-12-04T03:11:30;7.25;;;6.10;;
56255;SDS011;57229;51.432;-2.598;2023-12-04T03:13:55;8.07;;;6.45;;
56255;SDS011;57229;51.432;-2.598;2023-12-04T03:16:21;10.05;;;6.68;;
56255;SDS011;57229;51.432;-2.598;2023-12-04T03:18:47;10.13;;;6.55;;
56255;SDS011;57229;51.432;-2.598;2023-12-04T03:21:13;7.18;;;6.57;;
56255;SDS011;57229;51.432;-2.598;2023-12-04T03:23:38;8.82;;;6.82;;
56255;SDS011;57229;51.432;-2.598;2023-12-04T03:26:04;7.95;;;6.78;;
56255;SDS011;57229;51.432;-2.598;2023-12-04T03:28:29;11.48;;;6.88;;
56255;SDS011;57229;51.432;-2.598;2023-12-04T03:30:55;11.65;;;6.72;;
56255;SDS011;57229;51.432;-2.598;2023-12-04T03:33:21;9.02;;;6.35;;
56255;SDS011;57229;51.432;-2.598;2023-12-04T03:35:47;7.55;;;6.50;;
56255;SDS011;57229;51.432;-2.598;2023-12-04T03:38:12;7.75;;;6.82;;
56255;SDS011;57229;51.432;-2.598;2023-12-04T03:40:38;8.02;;;6.20;;
56255;SDS011;57229;51.432;-2.598;2023-12-04T03:43:03;10.05;;;6.57;;
56255;SDS011;57229;51.432;-2.598;2023-12-04T03:45:29;8.25;;;7.15;;
56255;SDS011;57229;51.432;-2.598;2023-12-04T03:47:55;10.00;;;6.45;;
56255;SDS011;57229;51.432;-2.598;2023-12-04T03:50:20;9.27;;;6.38;;
56255;SDS011;57229;51.432;-2.598;2023-12-04T03:52:46;6.97;;;5.90;;
56255;SDS011;57229;51.432;-2.598;2023-12-04T03:55:11;8.30;;;6.50;;
56255;SDS011;57229;51.432;-2.598;2023-12-04T03:57:37;10.23;;;6.53;;
56255;SDS011;57229;51.432;-2.598;2023-12-04T04:00:26;13.10;;;6.50;;
56255;SDS011;57229;51.432;-2.598;2023-12-04T04:03:06;7.10;;;6.18;;
56255;SDS011;57229;51.432;-2.598;2023-12-04T04:05:32;7.20;;;6.70;;
56255;SDS011;57229;51.432;-2.598;2023-12-04T04:07:59;7.35;;;6.57;;
56255;SDS011;57229;51.432;-2.598;2023-12-04T04:10:25;7.65;;;6.72;;
56255;SDS011;57229;51.432;-2.598;2023-12-04T04:12:50;6.90;;;6.20;;
56255;SDS011;57229;51.432;-2.598;2023-12-04T04:15:16;7.15;;;6.55;;
56255;SDS011;57229;51.432;-2.598;2023-12-04T04:17:41;11.50;;;6.90;;
56255;SDS011;57229;51.432;-2.598;2023-12-04T04:20:07;8.32;;;6.85;;
56255;SDS011;57229;51.432;-2.598;2023-12-04T04:22:33;7.55;;;6.72;;
56255;SDS011;57229;51.432;-2.598;2023-12-04T04:25:03;10.50;;;6.47;;
56255;SDS011;57229;51.432;-2.598;2023-12-04T04:27:31;6.93;;;6.35;;
56255;SDS011;57229;51.432;-2.598;2023-12-04T04:29:57;7.88;;;7.05;;
56255;SDS011;57229;51.432;-2.598;2023-12-04T04:32:23;7.10;;;6.50;;
56255;SDS011;57229;51.432;-2.598;2023-12-04T04:34:48;8.27;;;6.00;;
56255;SDS011;57229;51.432;-2.598;2023-12-04T04:37:14;8.35;;;6.10;;
56255;SDS011;57229;51.432;-2.598;2023-12-04T04:39:40;8.60;;;6.80;;
56255;SDS011;57229;51.432;-2.598;2023-12-04T04:42:06;6.93;;;6.20;;
56255;SDS011;57229;51.432;-2.598;2023-12-04T04:44:31;7.90;;;6.45;;
56255;SDS011;57229;51.432;-2.598;2023-12-04T04:46:57;7.07;;;6.47;;
56255;SDS011;57229;51.432;-2.598;2023-12-04T04:49:23;8.13;;;6.60;;
56255;SDS011;57229;51.432;-2.598;2023-12-04T04:51:48;7.15;;;6.40;;
56255;SDS011;57229;51.432;-2.598;2023-12-04T04:54:14;8.18;;;6.53;;
56255;SDS011;57229;51.432;-2.598;2023-12-04T04:56:39;7.20;;;6.47;;
56255;SDS011;57229;51.432;-2.598;2023-12-04T04:59:05;8.60;;;6.45;;
56255;SDS011;57229;51.432;-2.598;2023-12-04T05:01:31;8.10;;;6.63;;
56255;SDS011;57229;51.432;-2.598;2023-12-04T05:03:56;7.30;;;6.60;;
56255;SDS011;57229;51.432;-2.598;2023-12-04T05:06:22;8.27;;;6.90;;
56255;SDS011;57229;51.432;-2.598;2023-12-04T05:08:48;10.27;;;6.95;;
56255;SDS011;57229;51.432;-2.598;2023-12-04T05:11:17;7.15;;;6.35;;
56255;SDS011;57229;51.432;-2.598;2023-12-04T05:13:43;10.05;;;7.22;;
56255;SDS011;57229;51.432;-2.598;2023-12-04T05:16:09;7.70;;;6.90;;
56255;SDS011;57229;51.432;-2.598;2023-12-04T05:18:35;10.30;;;6.90;;
56255;SDS011;57229;51.432;-2.598;2023-12-04T05:21:01;7.38;;;6.70;;
56255;SDS011;57229;51.432;-2.598;2023-12-04T05:23:26;7.57;;;6.97;;
56255;SDS011;57229;51.432;-2.598;2023-12-04T05:25:52;7.72;;;6.95;;
56255;SDS011;57229;51.432;-2.598;2023-12-04T05:28:17;10.80;;;7.07;;
56255;SDS011;57229;51.432;-2.598;2023-12-04T05:30:43;8.70;;;7.03;;
56255;SDS011;57229;51.432;-2.598;2023-12-04T05:33:08;10.40;;;7.63;;
56255;SDS011;57229;51.432;-2.598;2023-12-04T05:35:34;9.05;;;6.93;;
56255;SDS011;57229;51.432;-2.598;2023-12-04T05:38:01;8.55;;;6.95;;
56255;SDS011;57229;51.432;-2.598;2023-12-04T05:40:26;7.90;;;7.10;;
56255;SDS011;57229;51.432;-2.598;2023-12-04T05:42:52;7.78;;;7.07;;
56255;SDS011;57229;51.432;-2.598;2023-12-04T05:45:18;12.10;;;7.65;;
56255;SDS011;57229;51.432;-2.598;2023-12-04T05:47:43;8.90;;;6.78;;
56255;SDS011;57229;51.432;-2.598;2023-12-04T05:50:09;7.88;;;7.10;;
56255;SDS011;57229;51.432;-2.598;2023-12-04T05:52:34;10.13;;;7.68;;
56255;SDS011;57229;51.432;-2.598;2023-12-04T05:55:00;8.95;;;7.30;;
56255;SDS011;57229;51.432;-2.598;2023-12-04T05:57:25;8.68;;;6.90;;
56255;SDS011;57229;51.432;-2.598;2023-12-04T05:59:51;9.90;;;7.28;;
56255;SDS011;57229;51.432;-2.598;2023-12-04T06:02:17;8.70;;;7.72;;
56255;SDS011;57229;51.432;-2.598;2023-12-04T06:04:43;11.65;;;7.47;;
56255;SDS011;57229;51.432;-2.598;2023-12-04T06:07:09;10.88;;;7.70;;
56255;SDS011;57229;51.432;-2.598;2023-12-04T06:09:34;9.18;;;7.60;;
56255;SDS011;57229;51.432;-2.598;2023-12-04T06:12:02;9.10;;;7.18;;
56255;SDS011;57229;51.432;-2.598;2023-12-04T06:14:33;8.52;;;7.72;;
56255;SDS011;57229;51.432;-2.598;2023-12-04T06:16:59;9.68;;;8.00;;
56255;SDS011;57229;51.432;-2.598;2023-12-04T06:19:24;13.93;;;7.75;;
56255;SDS011;57229;51.432;-2.598;2023-12-04T06:21:50;12.70;;;7.72;;
56255;SDS011;57229;51.432;-2.598;2023-12-04T06:24:15;8.07;;;6.95;;
56255;SDS011;57229;51.432;-2.598;2023-12-04T06:26:42;8.73;;;7.60;;
56255;SDS011;57229;51.432;-2.598;2023-12-04T06:29:08;8.60;;;7.75;;
56255;SDS011;57229;51.432;-2.598;2023-12-04T06:31:34;7.88;;;7.18;;
56255;SDS011;57229;51.432;-2.598;2023-12-04T06:34:00;9.98;;;7.30;;
56255;SDS011;57229;51.432;-2.598;2023-12-04T06:36:26;8.23;;;7.15;;
56255;SDS011;57229;51.432;-2.598;2023-12-04T06:38:56;7.68;;;6.97;;
56255;SDS011;57229;51.432;-2.598;2023-12-04T06:41:24;9.27;;;7.00;;
56255;SDS011;57229;51.432;-2.598;2023-12-04T06:43:50;10.95;;;7.43;;
56255;SDS011;57229;51.432;-2.598;2023-12-04T06:46:16;9.32;;;7.60;;
56255;SDS011;57229;51.432;-2.598;2023-12-04T06:48:45;9.68;;;7.72;;
56255;SDS011;57229;51.432;-2.598;2023-12-04T06:51:22;10.35;;;7.88;;
56255;SDS011;57229;51.432;-2.598;2023-12-04T06:53:47;14.45;;;7.80;;
56255;SDS011;57229;51.432;-2.598;2023-12-04T06:56:14;11.40;;;8.65;;
56255;SDS011;57229;51.432;-2.598;2023-12-04T06:58:40;10.85;;;8.07;;
56255;SDS011;57229;51.432;-2.598;2023-12-04T07:01:06;13.50;;;8.40;;
56255;SDS011;57229;51.432;-2.598;2023-12-04T07:03:32;9.80;;;8.57;;
56255;SDS011;57229;51.432;-2.598;2023-12-04T07:05:57;10.75;;;8.27;;
56255;SDS011;57229;51.432;-2.598;2023-12-04T07:08:23;11.70;;;8.40;;
56255;SDS011;57229;51.432;-2.598;2023-12-04T07:10:49;12.20;;;8.40;;
56255;SDS011;57229;51.432;-2.598;2023-12-04T07:13:15;9.77;;;8.85;;
56255;SDS011;57229;51.432;-2.598;2023-12-04T07:15:41;11.80;;;8.55;;
56255;SDS011;57229;51.432;-2.598;2023-12-04T07:18:06;10.05;;;9.00;;
56255;SDS011;57229;51.432;-2.598;2023-12-04T07:20:32;14.38;;;9.20;;
56255;SDS011;57229;51.432;-2.598;2023-12-04T07:22:57;10.63;;;9.02;;
56255;SDS011;57229;51.432;-2.598;2023-12-04T07:25:23;11.98;;;9.23;;
56255;SDS011;57229;51.432;-2.598;2023-12-04T07:27:49;14.52;;;9.23;;
56255;SDS011;57229;51.432;-2.598;2023-12-04T07:30:15;13.05;;;9.00;;
56255;SDS011;57229;51.432;-2.598;2023-12-04T07:32:41;14.80;;;10.07;;
56255;SDS011;57229;51.432;-2.598;2023-12-04T07:35:06;12.15;;;9.48;;
56255;SDS011;57229;51.432;-2.598;2023-12-04T07:37:32;16.40;;;10.60;;
56255;SDS011;57229;51.432;-2.598;2023-12-04T07:39:58;11.20;;;9.52;;
56255;SDS011;57229;51.432;-2.598;2023-12-04T07:42:24;12.60;;;9.55;;
56255;SDS011;57229;51.432;-2.598;2023-12-04T07:44:49;9.88;;;8.80;;
56255;SDS011;57229;51.432;-2.598;2023-12-04T07:47:15;14.00;;;8.70;;
56255;SDS011;57229;51.432;-2.598;2023-12-04T07:49:41;10.70;;;8.60;;
56255;SDS011;57229;51.432;-2.598;2023-12-04T07:52:07;10.93;;;8.63;;
56255;SDS011;57229;51.432;-2.598;2023-12-04T07:54:33;13.25;;;9.02;;
56255;SDS011;57229;51.432;-2.598;2023-12-04T07:56:59;12.15;;;9.27;;
56255;SDS011;57229;51.432;-2.598;2023-12-04T07:59:24;10.90;;;9.52;;
56255;SDS011;57229;51.432;-2.598;2023-12-04T08:01:51;18.88;;;9.30;;
56255;SDS011;57229;51.432;-2.598;2023-12-04T08:04:17;13.68;;;9.50;;
56255;SDS011;57229;51.432;-2.598;2023-12-04T08:06:42;11.25;;;9.60;;
56255;SDS011;57229;51.432;-2.598;2023-12-04T08:09:08;13.93;;;9.23;;
56255;SDS011;57229;51.432;-2.598;2023-12-04T08:11:40;13.63;;;9.10;;
56255;SDS011;57229;51.432;-2.598;2023-12-04T08:14:20;11.57;;;9.63;;
56255;SDS011;57229;51.432;-2.598;2023-12-04T08:16:49;10.10;;;9.10;;
56255;SDS011;57229;51.432;-2.598;2023-12-04T08:19:15;10.48;;;9.18;;
56255;SDS011;57229;51.432;-2.598;2023-12-04T08:21:41;10.77;;;9.07;;
56255;SDS011;57229;51.432;-2.598;2023-12-04T08:24:07;11.07;;;9.70;;
56255;SDS011;57229;51.432;-2.598;2023-12-04T08:26:32;10.95;;;9.88;;
56255;SDS011;57229;51.432;-2.598;2023-12-04T08:28:58;15.57;;;9.05;;
56255;SDS011;57229;51.432;-2.598;2023-12-04T08:31:24;11.30;;;8.85;;
56255;SDS011;57229;51.432;-2.598;2023-12-04T08:33:49;12.75;;;8.98;;
56255;SDS011;57229;51.432;-2.598;2023-12-04T08:36:15;10.70;;;9.20;;
56255;SDS011;57229;51.432;-2.598;2023-12-04T08:38:41;11.18;;;9.38;;
56255;SDS011;57229;51.432;-2.598;2023-12-04T08:41:07;10.70;;;9.10;;
56255;SDS011;57229;51.432;-2.598;2023-12-04T08:43:32;13.48;;;9.43;;
56255;SDS011;57229;51.432;-2.598;2023-12-04T08:45:58;10.25;;;9.35;;
56255;SDS011;57229;51.432;-2.598;2023-12-04T08:48:25;12.32;;;9.45;;
56255;SDS011;57229;51.432;-2.598;2023-12-04T08:51:00;11.48;;;10.27;;
56255;SDS011;57229;51.432;-2.598;2023-12-04T08:53:25;10.68;;;9.57;;
56255;SDS011;57229;51.432;-2.598;2023-12-04T08:55:55;15.02;;;10.10;;
56255;SDS011;57229;51.432;-2.598;2023-12-04T08:58:23;10.95;;;9.85;;
56255;SDS011;57229;51.432;-2.598;2023-12-04T09:00:48;12.45;;;10.20;;
56255;SDS011;57229;51.432;-2.598;2023-12-04T09:03:14;16.60;;;10.13;;
56255;SDS011;57229;51.432;-2.598;2023-12-04T09:05:39;11.63;;;9.80;;
56255;SDS011;57229;51.432;-2.598;2023-12-04T09:08:05;12.38;;;9.85;;
56255;SDS011;57229;51.432;-2.598;2023-12-04T09:10:31;11.10;;;9.95;;
56255;SDS011;57229;51.432;-2.598;2023-12-04T09:12:57;12.88;;;10.20;;
56255;SDS011;57229;51.432;-2.598;2023-12-04T09:15:23;16.55;;;10.40;;
56255;SDS011;57229;51.432;-2.598;2023-12-04T09:17:48;14.27;;;10.50;;
56255;SDS011;57229;51.432;-2.598;2023-12-04T09:20:14;12.85;;;10.13;;
56255;SDS011;57229;51.432;-2.598;2023-12-04T09:22:39;14.48;;;10.57;;
56255;SDS011;57229;51.432;-2.598;2023-12-04T09:25:05;11.85;;;9.63;;
56255;SDS011;57229;51.432;-2.598;2023-12-04T09:27:33;17.00;;;10.27;;
56255;SDS011;57229;51.432;-2.598;2023-12-04T09:29:59;12.63;;;10.40;;
56255;SDS011;57229;51.432;-2.598;2023-12-04T09:32:25;12.88;;;9.75;;
56255;SDS011;57229;51.432;-2.598;2023-12-04T09:34:51;14.45;;;10.38;;
56255;SDS011;57229;51.432;-2.598;2023-12-04T09:37:16;11.43;;;9.75;;
56255;SDS011;57229;51.432;-2.598;2023-12-04T09:39:42;14.88;;;9.35;;
56255;SDS011;57229;51.432;-2.598;2023-12-04T09:42:07;16.33;;;10.23;;
56255;SDS011;57229;51.432;-2.598;2023-12-04T09:44:34;17.90;;;10.18;;
56255;SDS011;57229;51.432;-2.598;2023-12-04T09:47:02;16.35;;;9.98;;
56255;SDS011;57229;51.432;-2.598;2023-12-04T09:49:28;16.35;;;10.27;;
56255;SDS011;57229;51.432;-2.598;2023-12-04T09:51:55;14.38;;;10.05;;
56255;SDS011;57229;51.432;-2.598;2023-12-04T09:54:22;18.98;;;10.93;;
56255;SDS011;57229;51.432;-2.598;2023-12-04T09:56:49;19.92;;;11.02;;
56255;SDS011;57229;51.432;-2.598;2023-12-04T09:59:15;17.20;;;11.38;;
56255;SDS011;57229;51.432;-2.598;2023-12-04T10:01:42;12.23;;;10.45;;
56255;SDS011;57229;51.432;-2.598;2023-12-04T10:04:09;15.38;;;10.60;;
56255;SDS011;57229;51.432;-2.598;2023-12-04T10:06:36;16.55;;;11.27;;
56255;SDS011;57229;51.432;-2.598;2023-12-04T10:09:02;16.85;;;10.15;;
56255;SDS011;57229;51.432;-2.598;2023-12-04T10:11:28;18.38;;;10.80;;
56255;SDS011;57229;51.432;-2.598;2023-12-04T10:13:55;16.55;;;10.43;;
56255;SDS011;57229;51.432;-2.598;2023-12-04T10:16:33;15.48;;;9.77;;
56255;SDS011;57229;51.432;-2.598;2023-12-04T10:21:56;14.38;;;9.52;;
56255;SDS011;57229;51.432;-2.598;2023-12-04T10:24:33;12.68;;;10.20;;
56255;SDS011;57229;51.432;-2.598;2023-12-04T10:27:07;12.25;;;10.02;;
56255;SDS011;57229;51.432;-2.598;2023-12-04T10:29:42;16.38;;;10.38;;
56255;SDS011;57229;51.432;-2.598;2023-12-04T10:32:12;15.07;;;9.98;;
56255;SDS011;57229;51.432;-2.598;2023-12-04T10:34:38;17.65;;;10.65;;
56255;SDS011;57229;51.432;-2.598;2023-12-04T10:37:07;17.48;;;11.65;;
56255;SDS011;57229;51.432;-2.598;2023-12-04T10:39:48;17.13;;;11.32;;
56255;SDS011;57229;51.432;-2.598;2023-12-04T10:42:28;13.43;;;11.48;;
56255;SDS011;57229;51.432;-2.598;2023-12-04T10:44:55;17.52;;;12.07;;
56255;SDS011;57229;51.432;-2.598;2023-12-04T10:47:22;17.90;;;11.20;;
56255;SDS011;57229;51.432;-2.598;2023-12-04T10:49:49;13.73;;;11.00;;
56255;SDS011;57229;51.432;-2.598;2023-12-04T10:52:16;16.23;;;10.75;;
56255;SDS011;57229;51.432;-2.598;2023-12-04T10:54:44;15.15;;;11.18;;
56255;SDS011;57229;51.432;-2.598;2023-12-04T10:57:13;20.05;;;11.20;;
56255;SDS011;57229;51.432;-2.598;2023-12-04T10:59:46;18.02;;;10.80;;
56255;SDS011;57229;51.432;-2.598;2023-12-04T11:02:14;13.02;;;10.55;;
56255;SDS011;57229;51.432;-2.598;2023-12-04T11:04:46;14.65;;;10.38;;
56255;SDS011;57229;51.432;-2.598;2023-12-04T11:07:15;16.30;;;10.88;;
56255;SDS011;57229;51.432;-2.598;2023-12-04T11:09:44;15.40;;;12.35;;
56255;SDS011;57229;51.432;-2.598;2023-12-04T11:12:14;15.85;;;12.60;;
56255;SDS011;57229;51.432;-2.598;2023-12-04T11:14:46;17.92;;;12.38;;
56255;SDS011;57229;51.432;-2.598;2023-12-04T11:17:18;20.30;;;12.50;;
56255;SDS011;57229;51.432;-2.598;2023-12-04T11:19:54;14.38;;;12.27;;
56255;SDS011;57229;51.432;-2.598;2023-12-04T11:22:23;16.40;;;12.20;;
56255;SDS011;57229;51.432;-2.598;2023-12-04T11:24:50;18.20;;;12.70;;
56255;SDS011;57229;51.432;-2.598;2023-12-04T11:27:16;15.15;;;12.48;;
56255;SDS011;57229;51.432;-2.598;2023-12-04T11:29:43;14.55;;;12.23;;
56255;SDS011;57229;51.432;-2.598;2023-12-04T11:32:18;14.65;;;11.88;;
56255;SDS011;57229;51.432;-2.598;2023-12-04T11:34:49;11.93;;;10.75;;
56255;SDS011;57229;51.432;-2.598;2023-12-04T11:37:15;11.85;;;10.05;;
56255;SDS011;57229;51.432;-2.598;2023-12-04T11:39:41;10.57;;;9.57;;
56255;SDS011;57229;51.432;-2.598;2023-12-04T11:42:06;10.52;;;9.63;;
56255;SDS011;57229;51.432;-2.598;2023-12-04T11:44:32;10.68;;;9.70;;
56255;SDS011;57229;51.432;-2.598;2023-12-04T11:47:03;9.90;;;9.10;;
56255;SDS011;57229;51.432;-2.598;2023-12-04T11:49:31;10.10;;;8.90;;
56255;SDS011;57229;51.432;-2.598;2023-12-04T11:51:58;9.45;;;8.75;;
56255;SDS011;57229;51.432;-2.598;2023-12-04T11:54:36;10.13;;;9.13;;
56255;SDS011;57229;51.432;-2.598;2023-12-04T11:57:23;9.45;;;8.75;;
56255;SDS011;57229;51.432;-2.598;2023-12-04T11:59:51;9.18;;;8.57;;
56255;SDS011;57229;51.432;-2.598;2023-12-04T12:02:17;9.65;;;7.88;;
56255;SDS011;57229;51.432;-2.598;2023-12-04T12:04:43;8.18;;;7.57;;
56255;SDS011;57229;51.432;-2.598;2023-12-04T12:07:10;9.10;;;8.00;;
56255;SDS011;57229;51.432;-2.598;2023-12-04T12:09:36;8.90;;;8.35;;
56255;SDS011;57229;51.432;-2.598;2023-12-04T12:12:03;10.95;;;9.85;;
56255;SDS011;57229;51.432;-2.598;2023-12-04T12:14:29;9.00;;;8.23;;
56255;SDS011;57229;51.432;-2.598;2023-12-04T12:16:57;9.35;;;8.55;;
56255;SDS011;57229;51.432;-2.598;2023-12-04T12:19:25;9.25;;;8.55;;
56255;SDS011;57229;51.432;-2.598;2023-12-04T12:21:50;8.93;;;8.30;;
56255;SDS011;57229;51.432;-2.598;2023-12-04T12:24:17;8.93;;;8.23;;
56255;SDS011;57229;51.432;-2.598;2023-12-04T12:26:43;8.20;;;7.60;;
56255;SDS011;57229;51.432;-2.598;2023-12-04T12:29:10;8.70;;;8.05;;
56255;SDS011;57229;51.432;-2.598;2023-12-04T12:31:36;9.40;;;8.68;;
56255;SDS011;57229;51.432;-2.598;2023-12-04T12:34:01;8.20;;;7.50;;
56255;SDS011;57229;51.432;-2.598;2023-12-04T12:36:28;8.40;;;7.70;;
56255;SDS011;57229;51.432;-2.598;2023-12-04T12:38:54;8.27;;;7.68;;
56255;SDS011;57229;51.432;-2.598;2023-12-04T12:41:19;8.80;;;8.10;;
56255;SDS011;57229;51.432;-2.598;2023-12-04T12:43:45;9.25;;;8.50;;
56255;SDS011;57229;51.432;-2.598;2023-12-04T12:46:12;9.13;;;8.45;;
56255;SDS011;57229;51.432;-2.598;2023-12-04T12:48:38;8.82;;;8.15;;
56255;SDS011;57229;51.432;-2.598;2023-12-04T12:51:04;8.05;;;7.43;;
56255;SDS011;57229;51.432;-2.598;2023-12-04T12:53:34;8.43;;;7.93;;
56255;SDS011;57229;51.432;-2.598;2023-12-04T12:56:00;8.70;;;8.10;;
56255;SDS011;57229;51.432;-2.598;2023-12-04T12:58:26;8.38;;;7.72;;
56255;SDS011;57229;51.432;-2.598;2023-12-04T13:00:52;8.32;;;7.82;;
56255;SDS011;57229;51.432;-2.598;2023-12-04T13:03:18;7.78;;;7.18;;
56255;SDS011;57229;51.432;-2.598;2023-12-04T13:05:44;7.30;;;6.90;;
56255;SDS011;57229;51.432;-2.598;2023-12-04T13:08:11;7.88;;;7.28;;
56255;SDS011;57229;51.432;-2.598;2023-12-04T13:10:37;7.63;;;7.13;;
56255;SDS011;57229;51.432;-2.598;2023-12-04T13:13:03;7.93;;;7.32;;
56255;SDS011;57229;51.432;-2.598;2023-12-04T13:15:32;7.47;;;6.90;;
56255;SDS011;57229;51.432;-2.598;2023-12-04T13:17:57;7.97;;;7.47;;
56255;SDS011;57229;51.432;-2.598;2023-12-04T13:20:23;8.05;;;7.45;;
56255;SDS011;57229;51.432;-2.598;2023-12-04T13:22:49;6.97;;;6.47;;
56255;SDS011;57229;51.432;-2.598;2023-12-04T13:25:14;7.55;;;7.00;;
56255;SDS011;57229;51.432;-2.598;2023-12-04T13:27:43;8.07;;;7.47;;
56255;SDS011;57229;51.432;-2.598;2023-12-04T13:30:09;6.90;;;6.50;;
56255;SDS011;57229;51.432;-2.598;2023-12-04T13:32:35;8.70;;;6.70;;
56255;SDS011;57229;51.432;-2.598;2023-12-04T13:35:02;6.95;;;6.45;;
56255;SDS011;57229;51.432;-2.598;2023-12-04T13:37:30;7.53;;;6.93;;
56255;SDS011;57229;51.432;-2.598;2023-12-04T13:39:59;7.50;;;6.80;;
56255;SDS011;57229;51.432;-2.598;2023-12-04T13:42:29;6.75;;;6.35;;
56255;SDS011;57229;51.432;-2.598;2023-12-04T13:45:13;7.65;;;7.10;;
56255;SDS011;57229;51.432;-2.598;2023-12-04T13:47:39;7.07;;;6.68;;
56255;SDS011;57229;51.432;-2.598;2023-12-04T13:50:07;6.90;;;6.50;;
56255;SDS011;57229;51.432;-2.598;2023-12-04T13:52:34;7.35;;;6.85;;
56255;SDS011;57229;51.432;-2.598;2023-12-04T13:55:00;7.40;;;6.90;;
56255;SDS011;57229;51.432;-2.598;2023-12-04T13:57:26;7.10;;;6.70;;
56255;SDS011;57229;51.432;-2.598;2023-12-04T13:59:58;9.25;;;7.55;;
56255;SDS011;57229;51.432;-2.598;2023-12-04T14:02:25;7.57;;;7.00;;
56255;SDS011;57229;51.432;-2.598;2023-12-04T14:04:51;7.63;;;7.03;;
56255;SDS011;57229;51.432;-2.598;2023-12-04T14:07:17;7.40;;;7.00;;
56255;SDS011;57229;51.432;-2.598;2023-12-04T14:09:43;7.78;;;7.10;;
56255;SDS011;57229;51.432;-2.598;2023-12-04T14:12:12;8.38;;;7.68;;
56255;SDS011;57229;51.432;-2.598;2023-12-04T14:14:41;7.72;;;7.13;;
56255;SDS011;57229;51.432;-2.598;2023-12-04T14:17:06;7.82;;;7.30;;
56255;SDS011;57229;51.432;-2.598;2023-12-04T14:19:33;7.20;;;6.70;;
56255;SDS011;57229;51.432;-2.598;2023-12-04T14:21:59;7.68;;;7.07;;
56255;SDS011;57229;51.432;-2.598;2023-12-04T14:24:25;7.25;;;6.65;;
56255;SDS011;57229;51.432;-2.598;2023-12-04T14:26:51;7.60;;;7.05;;
56255;SDS011;57229;51.432;-2.598;2023-12-04T14:29:19;7.50;;;6.97;;